Time;durP1;ratioP1;P1;durP2;ratioP2;P2;SDS_P1;SDS_P2;PMS_P1;PMS_P2;Temp;Humidity;BMP_temperature;BMP_pressure;BME280_temperature;BME280_humidity;BME280_pressure;Samples;Min_cycle;Max_cycle;Signal;HPM_P1;HPM_P2
2021/06/16 00:00:17;;;;;;;4.10;3.50;;;17.50;99.90;;;;;;5063662;28;21246;-85
2021/06/16 00:02:44;;;;;;;4.20;3.60;;;17.50;99.90;;;;;;5060414;28;20726;-85
2021/06/16 00:05:13;;;;;;;6.10;3.50;;;17.30;99.90;;;;;;5062992;28;21285;-84
2021/06/16 00:07:40;;;;;;;5.57;3.20;;;17.30;99.90;;;;;;5061590;28;21194;-84
2021/06/16 00:10:09;;;;;;;4.90;3.20;;;17.30;99.90;;;;;;5058512;28;20649;-83
2021/06/16 00:12:36;;;;;;;3.17;2.93;;;17.30;99.90;;;;;;5063965;28;20678;-84
2021/06/16 00:15:08;;;;;;;4.93;3.30;;;17.40;99.90;;;;;;5062509;28;20630;-84
2021/06/16 00:17:35;;;;;;;4.77;4.27;;;17.40;99.90;;;;;;5063232;28;20624;-84
2021/06/16 00:20:03;;;;;;;5.53;5.13;;;17.40;99.90;;;;;;5062179;28;20653;-85
2021/06/16 00:22:29;;;;;;;5.60;4.70;;;17.40;99.90;;;;;;5061319;28;20671;-85
2021/06/16 00:24:56;;;;;;;4.20;3.90;;;17.40;99.90;;;;;;5063805;28;20629;-84
2021/06/16 00:27:23;;;;;;;5.67;5.17;;;17.40;99.90;;;;;;5063176;28;20642;-84
2021/06/16 00:29:50;;;;;;;5.23;4.73;;;17.40;99.90;;;;;;5059569;28;20682;-84
2021/06/16 00:32:18;;;;;;;6.13;5.53;;;17.40;99.90;;;;;;5060679;28;20624;-84
2021/06/16 00:34:46;;;;;;;4.30;3.90;;;17.50;99.90;;;;;;5058514;28;20641;-86
2021/06/16 00:37:12;;;;;;;4.93;4.40;;;17.40;99.90;;;;;;5058798;28;20620;-85
2021/06/16 00:39:39;;;;;;;4.50;4.20;;;17.40;99.90;;;;;;5062134;28;20641;-83
2021/06/16 00:42:07;;;;;;;7.83;4.23;;;17.40;99.90;;;;;;5061019;28;20653;-84
2021/06/16 00:44:34;;;;;;;5.50;5.00;;;17.40;99.90;;;;;;5066083;28;20625;-84
2021/06/16 00:47:01;;;;;;;4.90;4.47;;;17.40;99.90;;;;;;5060780;28;20645;-84
2021/06/16 00:49:30;;;;;;;4.57;4.17;;;17.30;99.90;;;;;;5062433;28;21340;-84
2021/06/16 00:51:57;;;;;;;5.63;4.93;;;17.30;99.90;;;;;;5061089;28;20633;-84
2021/06/16 00:54:25;;;;;;;4.50;4.10;;;17.30;99.90;;;;;;5062016;28;21341;-84
2021/06/16 00:56:52;;;;;;;4.97;4.57;;;17.30;99.90;;;;;;5060359;28;20629;-84
2021/06/16 00:59:18;;;;;;;4.20;3.90;;;17.20;99.90;;;;;;5062512;28;20629;-85
2021/06/16 01:01:49;;;;;;;4.30;4.00;;;17.20;99.90;;;;;;5063994;28;20661;-83
2021/06/16 01:04:19;;;;;;;4.20;3.80;;;17.20;99.90;;;;;;5060335;28;20621;-84
2021/06/16 01:06:51;;;;;;;4.63;3.67;;;17.10;99.90;;;;;;5061584;28;21423;-85
2021/06/16 01:09:31;;;;;;;4.33;3.93;;;17.00;99.90;;;;;;5061239;28;20630;-85
2021/06/16 01:12:03;;;;;;;5.00;3.70;;;17.00;99.90;;;;;;5062764;28;20608;-85
2021/06/16 01:14:35;;;;;;;3.70;3.13;;;16.90;99.90;;;;;;5063544;28;20625;-86
2021/06/16 01:17:05;;;;;;;4.00;3.60;;;16.90;99.90;;;;;;5061852;28;20617;-83
2021/06/16 01:20:09;;;;;;;7.30;4.83;;;16.90;99.90;;;;;;5064757;28;20735;-83
2021/06/16 01:22:43;;;;;;;4.60;4.30;;;16.90;99.90;;;;;;5034913;28;20664;-84
2021/06/16 01:25:16;;;;;;;4.93;4.23;;;16.90;99.90;;;;;;5065083;28;20617;-83
2021/06/16 01:27:44;;;;;;;5.20;3.60;;;16.80;99.90;;;;;;5068798;28;20640;-86
2021/06/16 01:30:17;;;;;;;5.80;4.10;;;16.80;99.90;;;;;;5065475;28;20641;-86
2021/06/16 01:32:44;;;;;;;5.07;4.13;;;16.70;99.90;;;;;;5062454;28;20618;-84
2021/06/16 01:35:12;;;;;;;5.70;4.57;;;16.70;99.90;;;;;;5047438;28;20628;-86
2021/06/16 01:37:40;;;;;;;4.60;4.30;;;16.70;99.90;;;;;;5074363;28;20625;-85
2021/06/16 01:40:08;;;;;;;4.10;3.70;;;16.60;99.90;;;;;;5080104;28;20653;-84
2021/06/16 01:42:35;;;;;;;4.50;4.10;;;16.60;99.90;;;;;;5068095;28;20668;-85
2021/06/16 01:45:05;;;;;;;4.40;4.00;;;16.60;99.90;;;;;;5083547;28;20625;-84
2021/06/16 01:47:31;;;;;;;4.37;3.93;;;16.50;99.90;;;;;;5083203;28;20620;-84
2021/06/16 01:50:01;;;;;;;5.00;4.60;;;16.50;99.90;;;;;;5081921;28;20653;-84
2021/06/16 01:52:30;;;;;;;5.40;4.90;;;16.50;99.90;;;;;;5078422;28;20624;-83
2021/06/16 01:54:58;;;;;;;4.67;4.27;;;16.50;99.90;;;;;;5080086;28;20618;-84
2021/06/16 01:57:26;;;;;;;4.20;3.90;;;16.40;99.90;;;;;;5071002;28;20629;-86
2021/06/16 01:59:56;;;;;;;5.90;4.20;;;16.50;99.90;;;;;;5085184;28;20648;-84
2021/06/16 02:02:24;;;;;;;4.17;3.87;;;16.40;99.90;;;;;;5083320;28;20675;-84
2021/06/16 02:04:51;;;;;;;4.50;4.10;;;16.30;99.90;;;;;;5084630;28;20676;-85
2021/06/16 02:07:23;;;;;;;4.70;4.30;;;16.30;99.90;;;;;;5071533;28;20628;-83
2021/06/16 02:09:52;;;;;;;5.20;4.80;;;16.30;99.90;;;;;;5069097;28;20649;-86
2021/06/16 02:12:20;;;;;;;5.80;4.47;;;16.30;99.90;;;;;;5068127;28;20633;-85
2021/06/16 02:14:51;;;;;;;6.03;4.00;;;16.20;99.90;;;;;;5064580;28;21291;-84
2021/06/16 02:17:20;;;;;;;5.13;4.50;;;16.20;99.90;;;;;;5062293;28;20652;-85
2021/06/16 02:19:50;;;;;;;4.93;4.13;;;16.20;99.90;;;;;;5064447;28;20657;-84
2021/06/16 02:22:17;;;;;;;4.93;4.40;;;16.20;99.90;;;;;;5072231;28;20661;-83
2021/06/16 02:24:46;;;;;;;5.53;4.60;;;16.20;99.90;;;;;;5078539;28;20628;-84
2021/06/16 02:27:14;;;;;;;4.70;4.30;;;16.10;99.90;;;;;;5075883;28;20977;-84
2021/06/16 02:29:41;;;;;;;6.80;4.47;;;16.20;99.90;;;;;;5076460;28;20736;-84
2021/06/16 02:32:08;;;;;;;4.70;4.30;;;16.10;99.90;;;;;;5082355;28;20956;-83
2021/06/16 02:34:35;;;;;;;6.03;4.97;;;16.10;99.90;;;;;;5081897;28;20636;-83
2021/06/16 02:37:07;;;;;;;7.47;4.67;;;16.00;99.90;;;;;;5082721;28;20613;-86
2021/06/16 02:39:38;;;;;;;5.00;4.50;;;16.00;99.90;;;;;;5082104;28;21243;-86
2021/06/16 02:42:07;;;;;;;5.87;5.30;;;16.00;99.90;;;;;;5074852;28;20691;-85
2021/06/16 02:44:36;;;;;;;5.63;5.23;;;16.00;99.90;;;;;;5072837;28;20629;-83
2021/06/16 02:47:06;;;;;;;6.60;6.10;;;15.90;99.90;;;;;;5064806;28;20609;-83
2021/06/16 02:49:35;;;;;;;6.70;5.23;;;16.00;99.90;;;;;;5067069;28;20663;-83
2021/06/16 02:52:05;;;;;;;5.50;5.10;;;15.90;99.90;;;;;;5061087;28;20625;-84
2021/06/16 02:54:33;;;;;;;7.70;5.23;;;15.90;99.90;;;;;;5065709;28;20631;-83
2021/06/16 02:57:03;;;;;;;6.33;5.73;;;15.90;99.90;;;;;;5063527;28;20621;-84
2021/06/16 02:59:32;;;;;;;6.07;5.53;;;15.90;99.90;;;;;;5062456;28;20649;-86
2021/06/16 03:01:59;;;;;;;6.30;5.80;;;15.90;99.90;;;;;;5065650;28;21141;-85
2021/06/16 03:04:27;;;;;;;6.60;6.10;;;15.90;99.90;;;;;;5067613;28;20624;-85
2021/06/16 03:06:56;;;;;;;6.13;5.53;;;15.90;99.90;;;;;;5062950;28;20633;-83
2021/06/16 03:09:25;;;;;;;9.63;6.27;;;15.80;99.90;;;;;;5065299;28;20628;-84
2021/06/16 03:11:53;;;;;;;6.57;5.97;;;15.80;99.90;;;;;;5069370;28;20647;-83
2021/06/16 03:14:22;;;;;;;7.70;6.63;;;15.80;99.90;;;;;;5065894;28;20640;-84
2021/06/16 03:16:49;;;;;;;5.93;5.40;;;15.80;99.90;;;;;;5066142;28;21163;-83
2021/06/16 03:19:15;;;;;;;8.43;6.00;;;15.60;99.90;;;;;;5065873;28;20635;-84
2021/06/16 03:21:44;;;;;;;7.00;6.40;;;15.70;99.90;;;;;;5064997;28;20629;-83
2021/06/16 03:24:12;;;;;;;7.13;6.53;;;15.70;99.90;;;;;;5065036;28;20669;-84
2021/06/16 03:26:41;;;;;;;6.50;6.00;;;15.70;99.90;;;;;;5065473;28;20629;-84
2021/06/16 03:29:10;;;;;;;5.73;5.23;;;15.70;99.90;;;;;;5060780;28;20650;-84
2021/06/16 03:31:40;;;;;;;5.60;5.10;;;15.60;99.90;;;;;;5065049;28;21213;-84
2021/06/16 03:34:07;;;;;;;6.43;5.83;;;15.70;99.90;;;;;;5062648;28;20621;-84
2021/06/16 03:36:35;;;;;;;5.60;5.07;;;15.60;99.90;;;;;;5062251;28;20628;-83
2021/06/16 03:39:03;;;;;;;6.80;5.47;;;15.60;99.90;;;;;;5063470;28;20624;-83
2021/06/16 03:41:30;;;;;;;5.30;4.77;;;15.60;99.90;;;;;;5060054;28;20691;-83
2021/06/16 03:44:00;;;;;;;8.97;5.53;;;15.70;99.90;;;;;;5062100;28;20664;-82
2021/06/16 03:46:29;;;;;;;5.90;5.40;;;15.70;99.90;;;;;;5061669;28;20621;-82
2021/06/16 03:48:57;;;;;;;7.37;5.07;;;15.70;99.90;;;;;;5062996;28;20634;-82
2021/06/16 03:51:27;;;;;;;5.83;5.33;;;15.70;99.90;;;;;;5062533;28;21266;-82
2021/06/16 03:53:54;;;;;;;6.40;5.20;;;15.70;99.90;;;;;;5063047;28;20617;-83
2021/06/16 03:56:22;;;;;;;6.23;5.33;;;15.80;99.90;;;;;;5062770;28;20971;-82
2021/06/16 03:58:51;;;;;;;6.00;5.40;;;15.70;99.90;;;;;;5062011;28;21553;-82
2021/06/16 04:01:19;;;;;;;5.27;4.77;;;15.80;99.90;;;;;;5061439;28;20702;-82
2021/06/16 04:03:47;;;;;;;5.20;4.80;;;15.80;99.90;;;;;;5063034;28;20668;-82
2021/06/16 04:06:14;;;;;;;5.47;5.00;;;15.80;99.90;;;;;;5064672;28;20632;-83
2021/06/16 04:08:43;;;;;;;7.77;5.10;;;15.90;99.90;;;;;;5063792;28;21040;-82
2021/06/16 04:11:11;;;;;;;5.70;5.20;;;15.90;99.90;;;;;;5062140;28;20649;-82
2021/06/16 04:13:38;;;;;;;5.60;4.87;;;16.00;99.90;;;;;;5064356;28;20690;-82
2021/06/16 04:16:06;;;;;;;5.63;5.13;;;16.00;99.90;;;;;;5060033;28;20618;-82
2021/06/16 04:18:35;;;;;;;6.33;4.87;;;16.00;99.90;;;;;;5067925;28;20621;-83
2021/06/16 04:21:02;;;;;;;6.70;5.10;;;16.10;99.90;;;;;;5057994;28;21014;-82
2021/06/16 04:23:30;;;;;;;6.40;5.80;;;16.10;99.90;;;;;;5061525;28;20660;-83
2021/06/16 04:25:57;;;;;;;7.40;6.60;;;16.10;99.90;;;;;;5062609;28;22378;-82
2021/06/16 04:28:24;;;;;;;11.17;6.50;;;16.20;99.90;;;;;;5061152;28;20633;-82
2021/06/16 04:30:51;;;;;;;6.97;6.47;;;16.30;99.90;;;;;;5060926;28;20659;-82
2021/06/16 04:33:17;;;;;;;6.63;6.03;;;16.30;99.90;;;;;;5063073;28;20617;-82
2021/06/16 04:35:46;;;;;;;7.70;5.93;;;16.30;99.90;;;;;;5061872;28;21523;-82
2021/06/16 04:38:12;;;;;;;9.70;6.83;;;16.40;99.90;;;;;;5062754;28;20631;-82
2021/06/16 04:40:39;;;;;;;8.10;6.87;;;16.40;99.90;;;;;;5061516;28;20645;-83
2021/06/16 04:43:06;;;;;;;7.80;6.93;;;16.40;99.90;;;;;;5059416;28;20659;-83
2021/06/16 04:45:34;;;;;;;7.97;7.17;;;16.40;99.90;;;;;;5062246;28;20652;-83
2021/06/16 04:48:01;;;;;;;10.03;7.50;;;16.50;99.90;;;;;;5061984;28;20644;-82
2021/06/16 04:50:27;;;;;;;7.73;6.87;;;16.60;99.90;;;;;;5061771;28;20657;-82
2021/06/16 04:52:56;;;;;;;8.37;7.43;;;16.60;99.90;;;;;;5064269;28;20613;-83
2021/06/16 04:55:23;;;;;;;7.23;6.63;;;16.80;99.90;;;;;;5062264;28;20641;-82
2021/06/16 04:57:49;;;;;;;7.43;6.73;;;16.80;99.90;;;;;;5062063;28;20625;-85
2021/06/16 05:00:17;;;;;;;9.60;6.20;;;16.90;99.90;;;;;;5067243;28;20648;-86
2021/06/16 05:02:44;;;;;;;7.67;6.83;;;16.90;99.90;;;;;;5061993;28;20640;-86
2021/06/16 05:05:12;;;;;;;7.20;6.50;;;16.90;99.90;;;;;;5063501;28;20633;-86
2021/06/16 05:07:39;;;;;;;6.63;6.03;;;17.00;99.90;;;;;;5062948;28;20628;-86
2021/06/16 05:10:08;;;;;;;8.17;6.30;;;17.10;99.90;;;;;;5063451;28;20655;-87
2021/06/16 05:12:36;;;;;;;6.87;5.80;;;17.20;99.90;;;;;;5062470;28;20716;-86
2021/06/16 05:15:03;;;;;;;9.33;6.30;;;17.30;99.90;;;;;;5060217;28;20619;-87
2021/06/16 05:17:30;;;;;;;6.20;5.60;;;17.40;99.90;;;;;;5064562;28;20625;-86
2021/06/16 05:19:58;;;;;;;5.70;5.20;;;17.60;99.90;;;;;;5061773;28;20649;-87
2021/06/16 05:22:28;;;;;;;10.30;6.53;;;17.70;99.90;;;;;;5063381;28;20617;-86
2021/06/16 05:24:55;;;;;;;7.67;6.40;;;17.90;99.90;;;;;;5058280;28;20691;-86
2021/06/16 05:27:23;;;;;;;7.40;6.80;;;18.10;99.90;;;;;;5062031;28;21194;-87
2021/06/16 05:29:51;;;;;;;8.43;7.57;;;18.00;99.90;;;;;;5060939;28;21066;-85
2021/06/16 05:32:18;;;;;;;7.60;6.80;;;18.00;99.90;;;;;;5062846;28;20613;-85
2021/06/16 05:34:44;;;;;;;7.90;6.60;;;18.30;99.90;;;;;;5060351;28;20988;-85
2021/06/16 05:37:11;;;;;;;7.07;6.47;;;18.40;99.90;;;;;;5061430;28;20631;-85
2021/06/16 05:39:39;;;;;;;7.97;7.27;;;18.50;99.90;;;;;;5059357;28;20680;-85
2021/06/16 05:42:06;;;;;;;27.30;8.70;;;18.60;99.90;;;;;;5061224;28;20649;-83
2021/06/16 05:44:34;;;;;;;7.37;6.37;;;18.70;99.90;;;;;;5058090;28;20673;-84
2021/06/16 05:47:01;;;;;;;7.70;6.63;;;18.70;99.90;;;;;;5061278;28;20618;-84
2021/06/16 05:49:28;;;;;;;10.03;7.10;;;18.80;99.90;;;;;;5058859;28;20657;-83
2021/06/16 05:51:55;;;;;;;7.40;6.53;;;18.90;99.90;;;;;;5059810;28;20610;-85
2021/06/16 05:54:22;;;;;;;14.67;7.00;;;19.00;99.90;;;;;;5059277;28;20629;-84
2021/06/16 05:56:49;;;;;;;7.00;6.30;;;19.00;99.90;;;;;;5061442;28;20621;-84
2021/06/16 05:59:16;;;;;;;9.37;5.80;;;19.10;99.90;;;;;;5057413;28;20628;-84
2021/06/16 06:01:44;;;;;;;6.30;5.70;;;19.20;99.90;;;;;;5061162;28;20624;-84
2021/06/16 06:04:11;;;;;;;6.40;5.80;;;19.20;99.90;;;;;;5058623;28;20653;-84
2021/06/16 06:06:38;;;;;;;5.90;5.40;;;19.30;99.90;;;;;;5059079;28;21012;-84
2021/06/16 06:09:07;;;;;;;6.30;5.70;;;19.30;99.90;;;;;;5057574;28;20671;-84
2021/06/16 06:11:34;;;;;;;6.30;5.60;;;19.30;99.90;;;;;;5060590;28;20672;-83
2021/06/16 06:14:01;;;;;;;4.77;4.33;;;19.50;99.90;;;;;;5057979;28;20968;-83
2021/06/16 06:16:28;;;;;;;6.60;5.30;;;19.60;99.90;;;;;;5061074;28;20731;-84
2021/06/16 06:18:56;;;;;;;5.63;5.13;;;19.70;99.90;;;;;;5060576;28;20612;-84
2021/06/16 06:21:29;;;;;;;9.47;5.70;;;19.70;99.90;;;;;;5061764;28;20656;-83
2021/06/16 06:23:56;;;;;;;7.50;4.60;;;19.90;99.90;;;;;;5060934;28;21214;-83
2021/06/16 06:26:23;;;;;;;10.17;5.20;;;19.90;99.90;;;;;;5059808;28;20633;-84
2021/06/16 06:28:51;;;;;;;5.67;5.10;;;20.10;99.90;;;;;;5058185;28;21231;-84
2021/06/16 06:31:18;;;;;;;6.90;4.77;;;20.20;99.90;;;;;;5057576;28;20679;-83
2021/06/16 06:33:45;;;;;;;5.50;4.93;;;20.30;99.90;;;;;;5056947;28;20640;-84
2021/06/16 06:36:13;;;;;;;6.70;4.20;;;20.30;99.90;;;;;;5060103;28;20640;-84
2021/06/16 06:38:40;;;;;;;6.20;4.30;;;20.40;99.90;;;;;;5065023;28;20625;-84
2021/06/16 06:41:07;;;;;;;4.60;4.20;;;20.60;99.90;;;;;;5064269;28;20648;-84
2021/06/16 06:43:33;;;;;;;5.50;3.90;;;20.60;99.90;;;;;;5064467;28;20652;-84
2021/06/16 06:46:00;;;;;;;9.20;4.80;;;20.80;99.90;;;;;;5065991;28;20632;-84
2021/06/16 06:48:27;;;;;;;6.40;4.47;;;20.90;99.90;;;;;;5064644;28;21005;-84
2021/06/16 06:50:54;;;;;;;5.70;4.17;;;21.10;99.90;;;;;;5063081;28;20629;-84
2021/06/16 06:53:24;;;;;;;4.00;3.70;;;21.10;99.90;;;;;;5064418;28;20743;-84
2021/06/16 06:55:52;;;;;;;5.67;4.20;;;21.30;99.90;;;;;;5065611;28;20640;-84
2021/06/16 06:58:18;;;;;;;6.00;4.00;;;21.40;99.90;;;;;;5063953;28;20639;-84
2021/06/16 07:00:45;;;;;;;4.63;3.87;;;21.50;99.90;;;;;;5064442;28;20629;-84
2021/06/16 07:03:12;;;;;;;4.03;3.60;;;21.70;99.90;;;;;;5064407;28;20636;-84
2021/06/16 07:05:39;;;;;;;4.63;3.97;;;21.90;99.90;;;;;;5064947;28;20648;-84
2021/06/16 07:08:06;;;;;;;5.30;4.00;;;21.90;99.90;;;;;;5066205;28;20620;-84
2021/06/16 07:10:34;;;;;;;4.90;3.87;;;22.00;99.90;;;;;;5063831;28;20644;-83
2021/06/16 07:13:03;;;;;;;5.60;4.20;;;22.20;99.90;;;;;;5061296;28;20614;-84
2021/06/16 07:15:30;;;;;;;5.10;4.23;;;22.20;99.90;;;;;;5061525;28;20757;-84
2021/06/16 07:17:56;;;;;;;4.13;3.73;;;22.40;99.90;;;;;;5066552;28;20651;-84
2021/06/16 07:20:23;;;;;;;5.87;4.07;;;22.40;99.90;;;;;;5062963;28;20644;-84
2021/06/16 07:22:50;;;;;;;6.90;3.70;;;22.50;99.90;;;;;;5066038;28;20643;-84
2021/06/16 07:25:19;;;;;;;4.30;4.00;;;22.60;99.90;;;;;;5065734;28;20681;-84
2021/06/16 07:27:47;;;;;;;6.20;4.20;;;22.80;99.90;;;;;;5061462;28;20629;-84
2021/06/16 07:30:15;;;;;;;6.17;4.63;;;22.90;99.90;;;;;;5063986;28;20639;-84
2021/06/16 07:32:43;;;;;;;4.30;3.30;;;23.00;99.90;;;;;;5062125;28;20617;-84
2021/06/16 07:35:11;;;;;;;7.53;3.80;;;23.00;99.90;;;;;;5064271;28;20680;-84
2021/06/16 07:37:38;;;;;;;6.50;4.17;;;23.10;99.90;;;;;;5061569;28;20618;-84
2021/06/16 07:40:08;;;;;;;4.60;4.20;;;23.20;99.90;;;;;;5062427;28;20632;-84
2021/06/16 07:42:35;;;;;;;5.07;3.53;;;23.20;99.70;;;;;;5062863;28;20589;-84
2021/06/16 07:45:03;;;;;;;5.83;3.87;;;23.20;99.90;;;;;;5062344;28;20688;-84
2021/06/16 07:47:30;;;;;;;5.47;4.00;;;23.50;99.70;;;;;;5061161;28;20665;-84
2021/06/16 07:49:57;;;;;;;6.13;3.63;;;23.60;99.40;;;;;;5059123;28;20624;-84
2021/06/16 07:52:24;;;;;;;4.00;3.70;;;23.70;99.60;;;;;;5060783;28;20644;-84
2021/06/16 07:54:51;;;;;;;4.80;3.33;;;23.80;98.80;;;;;;5063235;28;20644;-84
2021/06/16 07:57:17;;;;;;;3.70;3.37;;;24.00;98.90;;;;;;5061625;28;20621;-84
2021/06/16 07:59:44;;;;;;;3.87;3.50;;;24.10;98.60;;;;;;5062985;28;20625;-84
2021/06/16 08:02:12;;;;;;;5.73;4.17;;;24.30;98.40;;;;;;5063049;28;20637;-84
2021/06/16 08:04:41;;;;;;;7.80;4.03;;;24.50;97.40;;;;;;5061676;28;20677;-84
2021/06/16 08:07:10;;;;;;;6.23;3.23;;;24.40;96.10;;;;;;5063043;28;20654;-84
2021/06/16 08:09:37;;;;;;;6.73;3.40;;;24.40;96.30;;;;;;5058425;28;20642;-84
2021/06/16 08:12:07;;;;;;;3.37;3.07;;;24.40;96.90;;;;;;5061577;28;20705;-84
2021/06/16 08:14:34;;;;;;;4.67;3.47;;;24.60;96.00;;;;;;5060709;28;20698;-84
2021/06/16 08:17:01;;;;;;;3.43;3.13;;;24.80;96.00;;;;;;5059467;28;20621;-85
2021/06/16 08:19:29;;;;;;;3.47;3.17;;;25.00;95.80;;;;;;5063400;28;20651;-86
2021/06/16 08:21:57;;;;;;;6.50;3.40;;;25.10;95.50;;;;;;5062497;28;20651;-85
2021/06/16 08:24:24;;;;;;;4.77;2.80;;;25.20;94.70;;;;;;5061600;28;20699;-85
2021/06/16 08:26:51;;;;;;;3.90;3.40;;;25.40;94.10;;;;;;5063091;28;20621;-85
2021/06/16 08:29:19;;;;;;;4.67;3.03;;;25.30;93.70;;;;;;5060761;28;20594;-85
2021/06/16 08:31:45;;;;;;;4.57;3.00;;;25.30;93.10;;;;;;5060690;28;21044;-85
2021/06/16 08:34:12;;;;;;;4.43;3.43;;;25.40;93.00;;;;;;5062825;28;20684;-92
2021/06/16 08:36:43;;;;;;;3.83;3.07;;;25.60;93.30;;;;;;5061363;28;20631;-92
2021/06/16 08:39:10;;;;;;;5.33;3.90;;;25.80;93.40;;;;;;5068497;28;20612;-92
2021/06/16 08:41:40;;;;;;;5.40;3.20;;;26.00;92.50;;;;;;5067693;28;20653;-92
2021/06/16 08:44:08;;;;;;;4.80;2.93;;;26.30;92.40;;;;;;5061854;28;20670;-92
2021/06/16 08:46:35;;;;;;;6.60;3.10;;;26.40;91.90;;;;;;5066821;28;20625;-89
2021/06/16 08:49:05;;;;;;;4.10;2.90;;;26.60;91.60;;;;;;5064771;28;20624;-89
2021/06/16 08:51:32;;;;;;;6.20;3.47;;;26.70;91.60;;;;;;5069943;28;20625;-90
2021/06/16 08:54:02;;;;;;;3.50;3.00;;;26.80;91.00;;;;;;5066753;28;20672;-91
2021/06/16 08:56:30;;;;;;;10.40;3.90;;;27.00;90.90;;;;;;5063231;28;21180;-91
2021/06/16 08:58:57;;;;;;;5.53;3.03;;;27.00;91.10;;;;;;5062642;28;20670;-91
2021/06/16 09:01:24;;;;;;;5.20;3.40;;;27.00;90.30;;;;;;5064457;28;20637;-90
2021/06/16 09:03:52;;;;;;;6.50;3.80;;;27.20;90.20;;;;;;5064039;28;20650;-90
2021/06/16 09:06:20;;;;;;;4.03;3.50;;;27.40;90.10;;;;;;5063229;28;21193;-90
2021/06/16 09:08:52;;;;;;;9.40;3.67;;;27.40;89.10;;;;;;5062333;28;20639;-90
2021/06/16 09:11:23;;;;;;;5.43;3.20;;;27.60;88.50;;;;;;5066728;28;20643;-90
2021/06/16 09:13:50;;;;;;;6.23;3.90;;;27.50;88.10;;;;;;5065807;28;20659;-90
2021/06/16 09:16:28;;;;;;;8.90;4.17;;;27.40;89.40;;;;;;5066226;28;21190;-90
2021/06/16 09:18:55;;;;;;;3.37;3.07;;;27.80;87.30;;;;;;5063775;28;20628;-90
2021/06/16 09:21:39;;;;;;;4.67;3.40;;;27.90;86.80;;;;;;5061379;28;20680;-93
2021/06/16 09:24:08;;;;;;;6.70;3.10;;;28.00;86.30;;;;;;5061238;28;20744;-91
2021/06/16 09:26:38;;;;;;;3.90;3.40;;;27.90;85.60;;;;;;5062826;28;20984;-91
2021/06/16 09:29:07;;;;;;;3.90;3.60;;;28.10;85.80;;;;;;5061703;28;20598;-90
2021/06/16 09:31:38;;;;;;;3.27;2.97;;;28.20;86.90;;;;;;5064961;28;20624;-91
2021/06/16 09:34:09;;;;;;;7.13;4.10;;;28.20;85.30;;;;;;5061608;28;20644;-91
2021/06/16 09:36:48;;;;;;;5.53;3.50;;;28.30;85.80;;;;;;5045249;28;20626;-90
2021/06/16 09:39:20;;;;;;;4.33;3.70;;;28.30;87.90;;;;;;5060504;28;20662;-90
2021/06/16 09:42:01;;;;;;;4.43;3.03;;;28.50;83.30;;;;;;5061320;28;20645;-91
2021/06/16 09:44:42;;;;;;;2.90;2.70;;;28.60;81.50;;;;;;5064983;28;20676;-91
2021/06/16 09:47:18;;;;;;;3.50;3.00;;;28.80;81.40;;;;;;5061771;28;20652;-90
2021/06/16 09:49:50;;;;;;;4.03;3.47;;;29.00;84.40;;;;;;5062651;28;20755;-92
2021/06/16 09:52:34;;;;;;;3.70;2.70;;;29.20;83.80;;;;;;5064476;28;20633;-92
2021/06/16 09:55:03;;;;;;;3.47;2.60;;;29.40;81.10;;;;;;5060595;28;20644;-91
2021/06/16 09:57:34;;;;;;;3.00;2.30;;;29.40;79.40;;;;;;5062570;28;20625;-91
2021/06/16 10:00:08;;;;;;;5.50;3.60;;;29.30;80.40;;;;;;5063385;28;20609;-91
2021/06/16 10:02:39;;;;;;;3.93;2.87;;;29.50;77.60;;;;;;5062737;28;20652;-91
2021/06/16 10:05:07;;;;;;;3.77;3.13;;;29.70;79.70;;;;;;5063457;28;20770;-92
2021/06/16 10:07:35;;;;;;;6.57;3.17;;;29.70;77.20;;;;;;5064233;28;20722;-92
2021/06/16 10:10:04;;;;;;;6.83;3.00;;;29.60;77.70;;;;;;5065951;28;20621;-93
2021/06/16 10:12:36;;;;;;;13.90;3.47;;;29.70;77.70;;;;;;5064819;28;20617;-92
2021/06/16 10:15:06;;;;;;;9.70;2.90;;;30.00;75.50;;;;;;5064028;28;20664;-93
2021/06/16 10:17:36;;;;;;;12.57;3.40;;;30.00;75.80;;;;;;5060818;28;21081;-93
2021/06/16 10:20:04;;;;;;;3.90;3.10;;;29.80;70.90;;;;;;5059215;28;20646;-93
2021/06/16 10:22:32;;;;;;;4.83;3.37;;;30.10;73.30;;;;;;5063347;28;20626;-92
2021/06/16 10:25:01;;;;;;;3.60;3.00;;;29.90;73.10;;;;;;5061849;28;21444;-93
2021/06/16 10:27:36;;;;;;;2.93;2.70;;;29.80;72.80;;;;;;5064255;28;20617;-91
2021/06/16 10:30:07;;;;;;;3.77;2.77;;;30.00;74.80;;;;;;5062636;28;20624;-92
2021/06/16 10:32:42;;;;;;;3.27;2.97;;;30.80;73.80;;;;;;5061175;28;20640;-93
2021/06/16 10:35:12;;;;;;;3.70;3.40;;;31.00;72.60;;;;;;5063262;28;20637;-93
2021/06/16 10:37:42;;;;;;;5.83;3.10;;;30.80;72.30;;;;;;5062690;28;20909;-93
2021/06/16 10:40:29;;;;;;;4.30;3.63;;;31.00;71.80;;;;;;5064700;28;20617;-91
2021/06/16 10:43:25;;;;;;;9.73;3.83;;;31.10;69.20;;;;;;5064025;28;21065;-92
2021/06/16 10:45:55;;;;;;;6.50;3.90;;;31.10;71.30;;;;;;5042444;28;21282;-92
2021/06/16 10:48:54;;;;;;;5.50;3.93;;;31.50;71.60;;;;;;5061480;28;21199;-93
2021/06/16 10:51:32;;;;;;;6.87;3.43;;;31.60;72.70;;;;;;5061543;28;20665;-93
2021/06/16 10:54:37;;;;;;;4.57;3.33;;;31.80;69.00;;;;;;5064089;28;20664;-92
2021/06/16 10:57:13;;;;;;;6.40;4.10;;;31.90;70.20;;;;;;5062547;28;20647;-93
2021/06/16 11:00:07;;;;;;;3.90;3.27;;;32.30;70.60;;;;;;5062749;28;20625;-92
2021/06/16 11:03:06;;;;;;;15.07;3.60;;;32.00;67.10;;;;;;5063319;28;20625;-93
2021/06/16 11:05:44;;;;;;;3.50;3.20;;;32.00;68.10;;;;;;5061265;28;20772;-92
2021/06/16 11:08:14;;;;;;;3.33;2.93;;;32.00;66.90;;;;;;5066059;28;20609;-92
2021/06/16 11:10:58;;;;;;;4.30;3.50;;;32.00;65.40;;;;;;5044794;28;20621;-92
2021/06/16 11:13:42;;;;;;;4.10;3.70;;;32.10;67.80;;;;;;5059657;28;20635;-92
2021/06/16 11:16:45;;;;;;;7.70;4.27;;;32.70;65.70;;;;;;5061434;28;20632;-93
2021/06/16 11:19:47;;;;;;;4.83;3.60;;;32.80;64.60;;;;;;5061429;28;20633;-93
2021/06/16 11:22:36;;;;;;;7.80;3.50;;;32.30;63.90;;;;;;5046436;28;20720;-92
2021/06/16 11:25:24;;;;;;;3.90;3.00;;;32.80;65.20;;;;;;5068506;28;20749;-93
2021/06/16 11:28:15;;;;;;;4.53;3.10;;;32.70;64.10;;;;;;5063740;28;20630;-92
2021/06/16 11:31:06;;;;;;;4.23;3.37;;;32.30;64.40;;;;;;5064385;28;20643;-92
2021/06/16 11:33:49;;;;;;;6.13;3.60;;;32.40;62.30;;;;;;5062867;28;20701;-92
2021/06/16 11:36:27;;;;;;;4.70;3.30;;;33.20;62.20;;;;;;5049046;28;20624;-91
2021/06/16 11:38:58;;;;;;;4.90;3.10;;;32.90;59.80;;;;;;5065748;28;20639;-93
2021/06/16 11:41:27;;;;;;;3.90;3.40;;;33.50;61.40;;;;;;5071626;28;20640;-91
2021/06/16 11:43:56;;;;;;;4.33;3.40;;;34.00;60.70;;;;;;5071664;28;20686;-92
2021/06/16 11:46:28;;;;;;;3.87;3.30;;;33.90;59.00;;;;;;5066834;28;21029;-91
2021/06/16 11:49:06;;;;;;;3.13;2.93;;;34.20;57.90;;;;;;5064754;28;20685;-92
2021/06/16 11:51:37;;;;;;;3.07;2.70;;;34.10;56.50;;;;;;5064790;28;20612;-96
2021/06/16 11:54:22;;;;;;;4.90;3.37;;;34.10;56.60;;;;;;5067090;28;20664;-96
2021/06/16 11:56:54;;;;;;;4.70;3.33;;;34.00;58.50;;;;;;5063999;28;20624;-95
2021/06/16 11:59:37;;;;;;;4.33;3.60;;;33.80;58.50;;;;;;5063760;28;21169;-95
2021/06/16 12:02:06;;;;;;;4.30;3.00;;;34.60;57.30;;;;;;5065825;28;20640;-94
2021/06/16 12:04:49;;;;;;;3.67;3.37;;;34.80;57.50;;;;;;5064608;28;20662;-96
2021/06/16 12:07:21;;;;;;;3.63;3.33;;;34.20;57.60;;;;;;5062891;28;20720;-95
2021/06/16 12:09:49;;;;;;;3.93;3.53;;;34.00;57.70;;;;;;5064668;28;20695;-95
2021/06/16 12:12:16;;;;;;;4.33;3.50;;;33.70;57.20;;;;;;5067233;28;21523;-95
2021/06/16 12:14:44;;;;;;;3.53;3.17;;;34.10;57.10;;;;;;5065566;28;20665;-96
2021/06/16 12:17:15;;;;;;;3.13;2.83;;;34.00;56.70;;;;;;5064779;28;20634;-95
2021/06/16 12:19:44;;;;;;;4.70;2.93;;;34.30;56.30;;;;;;5064858;28;20582;-95
2021/06/16 12:22:12;;;;;;;3.40;3.20;;;34.70;57.70;;;;;;5064531;28;20206;-94
2021/06/16 12:24:42;;;;;;;7.80;3.43;;;35.30;55.90;;;;;;5048099;28;20232;-95
2021/06/16 12:27:14;;;;;;;4.17;2.93;;;35.70;53.90;;;;;;5064842;28;20222;-95
2021/06/16 12:29:47;;;;;;;5.43;2.97;;;35.20;55.70;;;;;;5032298;28;20202;-96
2021/06/16 12:32:26;;;;;;;3.13;2.73;;;35.80;53.80;;;;;;5067068;28;20264;-96
2021/06/16 12:35:12;;;;;;;3.75;2.70;;;36.20;52.90;;;;;;5051678;28;20699;-96
2021/06/16 12:37:57;;;;;;;5.13;3.00;;;36.00;51.20;;;;;;5066769;28;20199;-96
2021/06/16 12:40:41;;;;;;;3.03;2.83;;;36.30;49.90;;;;;;5046696;28;20203;-96
2021/06/16 12:43:22;;;;;;;3.28;2.55;;;36.20;50.90;;;;;;5047691;28;20567;-96
2021/06/16 12:45:55;;;;;;;3.95;3.05;;;35.80;51.30;;;;;;5064651;28;20229;-96
2021/06/16 12:48:26;;;;;;;6.18;3.22;;;35.90;53.80;;;;;;5068514;28;20293;-95
2021/06/16 12:51:03;;;;;;;5.25;3.90;;;35.90;52.40;;;;;;5066931;28;20613;-96
2021/06/16 12:53:36;;;;;;;4.72;2.65;;;35.40;54.10;;;;;;5065483;28;20642;-96
2021/06/16 12:56:05;;;;;;;3.58;2.90;;;35.10;52.90;;;;;;5064116;28;20718;-96
2021/06/16 12:58:44;;;;;;;3.05;2.65;;;35.40;51.70;;;;;;5063517;28;20207;-95
2021/06/16 13:01:20;;;;;;;3.50;3.20;;;35.90;50.70;;;;;;5063366;28;20195;-96